ADDS METAR Data INFO
IDs: Format: Raw Decoded Include TAF

Data at: 2113 UTC 22 Oct 2017

KCLT 222052Z 08006KT 10SM SCT049 BKN060 BKN250 26/14 A3024 RMK AO2 SLP236 T02560139 56017
KCLT 221952Z 09007KT 10SM SCT049 BKN250 25/14 A3025 RMK AO2 SLP239 T02500144
KCLT 221852Z 10008KT 10SM SCT041 BKN250 26/14 A3026 RMK AO2 SLP243 T02560144
KCLT 221752Z 13007KT 10SM SCT038 BKN250 24/16 A3030 RMK AO2 SLP253 T02440156 10244 20106 58022
KCLT 221652Z 13007KT 10SM SCT032 BKN055 BKN250 24/15 A3033 RMK AO2 SLP265 T02440150
KCLT 221552Z 12007KT 10SM FEW033 FEW055 FEW150 SCT250 23/14 A3034 RMK AO2 SLP270 T02330144
KCLT 221452Z 11005KT 10SM FEW024 FEW055 SCT150 SCT250 21/15 A3036 RMK AO2 SLP276 T02110150 50007
KCLT 221352Z VRB03KT 10SM FEW004 FEW020 SCT150 SCT250 19/16 A3037 RMK AO2 SLP278 T01940156
KCLT 221252Z 01003KT 9SM FEW003 FEW025 SCT150 SCT250 16/14 A3035 RMK AO2 SLP273 T01560144
KCLT 221152Z 00000KT 10SM SCT100 11/11 A3034 RMK AO2 SLP271 T01110111 10156 20089 53008
KCLT 221052Z 00000KT 10SM SCT003 BKN100 12/12 A3033 RMK AO2 SLP265 T01220117
KCLT 221039Z 00000KT 10SM SCT005 11/11 A3032 RMK AO2 T01110106
KCLT 220952Z 00000KT 10SM FEW250 10/10 A3032 RMK AO2 SLP263 T01000100
KCLT 220852Z 00000KT 10SM FEW250 13/12 A3032 RMK AO2 SLP261 T01330117 58001
KCLT 220752Z 00000KT 10SM FEW250 12/11 A3032 RMK AO2 SLP263 T01170111
KCLT 220652Z 00000KT 10SM FEW250 11/11 A3033 RMK AO2 SLP264 T01110106
KCLT 220552Z 00000KT 10SM SCT250 16/12 A3032 RMK AO2 SLP261 T01560122 10206 20122 55004
KCLT 220452Z 00000KT 10SM SCT250 13/12 A3032 RMK AO2 SLP262 T01330117 402610078
KCLT 220352Z 07003KT 10SM SCT250 15/11 A3033 RMK AO2 SLP264 T01500111
KCLT 220252Z 00000KT 10SM SCT250 17/12 A3033 RMK AO2 SLP266 T01670122 51005
KCLT 220152Z 00000KT 10SM SCT250 17/12 A3033 RMK AO2 SLP266 T01670117
KCLT 220052Z 00000KT 10SM BKN250 19/12 A3032 RMK AO2 SLP263 T01890117
KCLT 212352Z 03003KT 10SM BKN250 18/12 A3032 RMK AO2 SLP263 T01830117 10261 20167 51007
KCLT 212252Z VRB04KT 10SM FEW200 OVC250 23/09 A3032 RMK AO2 SLP262 T02330094
KCLT 212152Z 13006KT 10SM SCT200 BKN250 24/09 A3030 RMK AO2 SLP256 T02390094
KCLT 212052Z 09006KT 10SM FEW200 BKN250 24/09 A3030 RMK AO2 SLP255 T02440094 56004
KCLT 211952Z 13003KT 10SM FEW200 BKN250 25/09 A3030 RMK AO2 SLP255 T02500094
KCLT 211852Z 08003KT 10SM FEW200 BKN250 26/09 A3030 RMK AO2 SLP256 T02560094
KCLT 211752Z VRB04KT 10SM BKN250 25/09 A3031 RMK AO2 SLP258 T02500089 10261 20083 58012
KCLT 211652Z 12005KT 10SM FEW150 BKN250 24/11 A3033 RMK AO2 SLP267 T02440111
KCLT 211552Z 00000KT 10SM BKN250 23/12 A3034 RMK AO2 SLP269 T02330117
KCLT 211452Z 00000KT 10SM BKN250 21/12 A3034 RMK AO2 SLP271 T02110122 51012
KCLT 211352Z 03004KT 10SM BKN250 18/12 A3034 RMK AO2 SLP271 T01780122
KCLT 211252Z 34003KT 10SM BKN250 14/11 A3033 RMK AO2 SLP269 T01390111
KCLT 211152Z 00000KT 10SM FEW250 08/08 A3031 RMK AO2 SLP261 T00830078 10117 20078 51017
KCLT 211052Z 35003KT 10SM CLR 08/08 A3029 RMK AO2 SLP256 T00780078
KCLT 210952Z 35005KT 10SM CLR 08/08 A3027 RMK AO2 SLP247 T00830083